»·PEaware :: N667SB KFUL-KTUS

N667SB :: KFUL-KTUS

FLIGHT INFORMATION

Flight Status: Arrived
Operator: Privately registered:
United States
More flights under this callsign
Pilot: Dean S. (16265)
Aircraft: CESSNA 421 GOLDEN EAGLE
(C421)
More flights by this aircraft type
Origin: KFUL Fullerton Mun
United States
Destination: KTUS Tucson Intl
United States
More flights between these airports :: More routes between these airports
Route: +EBITE PSP BLH TFD
File this flight plan on PilotEdge
Remarks:
Altitude:
(Current/Filed)
17,500ft
Speed:
(Current/Filed)
255kts
Departed: 23-Jul-19 08:47 PM
Arrived: 23-Jul-19 10:27 PM
Distance/Time
Traveled:
370nm/1:40
Distance/Time
To Go:
Arrived

Flight Plot

Page will automatically refresh every two minutes.


Map Options




Map Legend


Flown Route
Filed Route
Departure Airport
Arrival Airport
Navaid (VOR, NDB)
Fix

Horizontal Profiles

Position Reports

Time Latitude Longitude Heading Altitude Ground
Speed
23-Jul-19 20:28 33.870334 -117.978661 91 100ft 0kts
23-Jul-19 20:29 33.870334 -117.978661 91 100ft 0kts
23-Jul-19 20:30 33.870334 -117.978661 91 100ft 0kts
23-Jul-19 20:31 33.870334 -117.978661 91 100ft 0kts
23-Jul-19 20:32 33.870334 -117.978661 91 100ft 0kts
23-Jul-19 20:37 33.870333 -117.978661 91 100ft 0kts
23-Jul-19 20:38 33.870333 -117.978661 91 100ft 0kts
23-Jul-19 20:39 33.870578 -117.978556 347 100ft 8kts
23-Jul-19 20:40 33.872111 -117.976796 79 100ft 15kts
23-Jul-19 20:41 33.872586 -117.974971 11 100ft 0kts
23-Jul-19 20:42 33.872587 -117.974971 11 100ft 0kts
23-Jul-19 20:43 33.872587 -117.974971 11 100ft 0kts
23-Jul-19 20:44 33.872587 -117.974971 11 100ft 0kts
23-Jul-19 20:45 33.872745 -117.976007 256 100ft 21kts
23-Jul-19 20:46 33.859581 -117.995317 124 1230ft 123kts
23-Jul-19 20:47 33.857723 -117.948258 89 2071ft 167kts
23-Jul-19 20:48 33.858002 -117.894866 91 3875ft 158kts
23-Jul-19 20:49 33.863253 -117.844181 81 5652ft 148kts
23-Jul-19 20:51 33.863393 -117.792550 92 7491ft 159kts
23-Jul-19 20:52 33.861113 -117.739011 89 9490ft 161kts
23-Jul-19 20:53 33.862129 -117.684346 88 11499ft 165kts
23-Jul-19 20:54 33.862811 -117.628317 88 13500ft 169kts
23-Jul-19 20:55 33.863430 -117.570453 88 15512ft 175kts
23-Jul-19 20:56 33.864029 -117.511042 88 17436ft 185kts
23-Jul-19 20:57 33.864660 -117.437543 89 17524ft 243kts
23-Jul-19 20:58 33.865323 -117.360667 89 17538ft 254kts
23-Jul-19 20:59 33.865836 -117.297653 89 17562ft 256kts
23-Jul-19 21:00 33.866256 -117.244212 89 17557ft 257kts
23-Jul-19 21:01 33.866888 -117.158308 89 17562ft 257kts
23-Jul-19 21:02 33.867456 -117.073273 89 17603ft 256kts
23-Jul-19 21:03 33.867965 -116.988462 89 17632ft 257kts
23-Jul-19 21:04 33.868421 -116.902609 89 17640ft 257kts
23-Jul-19 21:05 33.868818 -116.816324 89 17640ft 257kts
23-Jul-19 21:06 33.869155 -116.729936 89 17604ft 258kts
23-Jul-19 21:07 33.869432 -116.643303 89 17554ft 259kts
23-Jul-19 21:08 33.869646 -116.556672 89 17514ft 259kts
23-Jul-19 21:09 33.869800 -116.470183 89 17499ft 258kts
23-Jul-19 21:10 33.862889 -116.384439 100 17505ft 258kts
23-Jul-19 21:10 33.851611 -116.313621 100 17509ft 258kts
23-Jul-19 21:11 33.838132 -116.228714 100 17503ft 258kts
23-Jul-19 21:13 33.822365 -116.129728 100 17466ft 259kts
23-Jul-19 21:13 33.811037 -116.058920 100 17442ft 259kts
23-Jul-19 21:14 33.797397 -115.974013 100 17440ft 258kts
23-Jul-19 21:16 33.781472 -115.875371 101 17469ft 258kts
23-Jul-19 21:16 33.770036 -115.804866 101 17475ft 258kts
23-Jul-19 21:17 33.756253 -115.720238 101 17479ft 258kts
23-Jul-19 21:18 33.742404 -115.635590 101 17483ft 258kts
23-Jul-19 21:19 33.728491 -115.550934 101 17487ft 258kts
23-Jul-19 21:20 33.714558 -115.466538 101 17486ft 258kts
23-Jul-19 21:21 33.700493 -115.381715 101 17484ft 258kts
23-Jul-19 21:22 33.686402 -115.297118 101 17479ft 258kts
23-Jul-19 21:23 33.672262 -115.212598 101 17475ft 258kts
23-Jul-19 21:24 33.658091 -115.128262 101 17469ft 258kts
23-Jul-19 21:25 33.643836 -115.043806 101 17495ft 257kts
23-Jul-19 21:26 33.629509 -114.959284 101 17497ft 258kts
23-Jul-19 21:27 33.615132 -114.874846 101 17498ft 258kts
23-Jul-19 21:28 33.600740 -114.790682 101 17498ft 258kts
23-Jul-19 21:29 33.583550 -114.707096 106 17499ft 258kts
23-Jul-19 21:30 33.563458 -114.624343 106 17499ft 258kts
23-Jul-19 21:31 33.543654 -114.541311 105 17498ft 258kts
23-Jul-19 21:32 33.523947 -114.458630 105 17497ft 258kts
23-Jul-19 21:33 33.504183 -114.375915 106 17497ft 258kts
23-Jul-19 21:34 33.484374 -114.293273 106 17471ft 259kts
23-Jul-19 21:35 33.464429 -114.210332 106 17459ft 258kts
23-Jul-19 21:36 33.444517 -114.127794 106 17451ft 258kts
23-Jul-19 21:37 33.424483 -114.045017 106 17451ft 258kts
23-Jul-19 21:38 33.404461 -113.962553 106 17455ft 258kts
23-Jul-19 21:39 33.384378 -113.880108 106 17458ft 258kts
23-Jul-19 21:40 33.364254 -113.797756 106 17460ft 258kts
23-Jul-19 21:41 33.344022 -113.715204 106 17463ft 258kts
23-Jul-19 21:42 33.323735 -113.632648 106 17465ft 258kts
23-Jul-19 21:43 33.303443 -113.550328 106 17468ft 258kts
23-Jul-19 21:44 33.283128 -113.468187 106 17472ft 258kts
23-Jul-19 21:45 33.262678 -113.385752 106 17479ft 258kts
23-Jul-19 21:46 33.242228 -113.303588 106 17482ft 258kts
23-Jul-19 21:47 33.221461 -113.220433 106 16169ft 265kts
23-Jul-19 21:48 33.200915 -113.138406 106 15043ft 254kts
23-Jul-19 21:49 33.180710 -113.057977 106 13790ft 249kts
23-Jul-19 21:50 33.160871 -112.979259 106 12546ft 245kts
23-Jul-19 21:51 33.151497 -112.942150 106 11979ft 242kts
23-Jul-19 21:54 33.083565 -112.678717 107 7860ft 222kts
23-Jul-19 21:55 33.066198 -112.610740 107 7594ft 204kts
23-Jul-19 21:57 33.033803 -112.484516 107 7599ft 201kts
23-Jul-19 21:58 33.016734 -112.418340 107 7569ft 214kts
23-Jul-19 21:59 32.999181 -112.350405 107 7514ft 214kts
23-Jul-19 22:00 32.980956 -112.279720 107 7515ft 228kts
23-Jul-19 22:01 32.962161 -112.207247 107 7519ft 229kts
23-Jul-19 22:02 32.943238 -112.134566 107 7539ft 229kts
23-Jul-19 22:03 32.924374 -112.062305 107 7545ft 230kts
23-Jul-19 22:04 32.905393 -111.989791 107 7546ft 230kts
23-Jul-19 22:05 32.886109 -111.917264 111 7547ft 230kts
23-Jul-19 22:06 32.845591 -111.858424 133 7550ft 230kts
23-Jul-19 22:07 32.801275 -111.803197 133 7550ft 231kts
23-Jul-19 22:08 32.757159 -111.747997 133 7567ft 230kts
23-Jul-19 22:09 32.713201 -111.692386 133 7577ft 230kts
23-Jul-19 22:10 32.669356 -111.636938 133 7587ft 230kts
23-Jul-19 22:11 32.625276 -111.581268 133 7590ft 231kts
23-Jul-19 22:12 32.581298 -111.525817 133 7597ft 230kts
23-Jul-19 22:13 32.537353 -111.470516 133 7609ft 230kts
23-Jul-19 22:14 32.493313 -111.415194 133 7636ft 230kts
23-Jul-19 22:15 32.450507 -111.360956 132 6678ft 218kts
23-Jul-19 22:16 32.409361 -111.308607 133 5629ft 214kts
23-Jul-19 22:17 32.372429 -111.262354 133 5798ft 193kts
23-Jul-19 22:18 32.334683 -111.215181 133 5362ft 195kts
23-Jul-19 22:19 32.298034 -111.169417 133 5354ft 184kts
23-Jul-19 22:20 32.261403 -111.124369 133 5069ft 189kts
23-Jul-19 22:21 32.234715 -111.079498 129 4568ft 147kts
23-Jul-19 22:22 32.207716 -111.046809 138 3746ft 135kts
23-Jul-19 22:23 32.182849 -111.017354 135 3431ft 122kts
23-Jul-19 22:24 32.157978 -110.988709 135 3114ft 125kts
23-Jul-19 22:25 32.135654 -110.962355 134 2782ft 100kts
23-Jul-19 22:26 32.119152 -110.942789 137 2592ft 21kts
23-Jul-19 22:27 32.118966 -110.938778 38 2592ft 0kts

Navigation Log

Ident Type
Flight plan parsing failed, navigation log unavailable